createdAt,value
2022-10-14T00:02:01.618Z,37.4
2022-10-14T00:07:01.529Z,39.8
2022-10-14T00:12:01.544Z,40.3
2022-10-14T00:17:01.507Z,40.6
2022-10-14T00:22:01.544Z,40.8
2022-10-14T00:27:01.506Z,42.1
2022-10-14T00:32:01.507Z,42.6
2022-10-14T00:37:01.524Z,43.9
2022-10-14T00:42:01.539Z,46.1
2022-10-14T00:47:01.529Z,47.0
2022-10-14T00:52:01.529Z,48.5
2022-10-14T00:57:01.523Z,49.1
2022-10-14T01:02:01.573Z,48.7
2022-10-14T01:07:01.203Z,49.3
2022-10-14T01:12:23.820Z,50.0
2022-10-14T01:22:01.438Z,51.4
2022-10-14T01:27:01.550Z,52.0
2022-10-14T01:32:01.221Z,51.0
2022-10-14T01:37:01.519Z,49.8
2022-10-14T01:42:01.539Z,49.6
2022-10-14T01:47:01.612Z,46.8
2022-10-14T01:52:01.564Z,47.4
2022-10-14T01:57:01.688Z,47.9
2022-10-14T02:02:01.607Z,50.6
2022-10-14T02:07:01.422Z,51.4
2022-10-14T02:12:01.609Z,52.3
2022-10-14T02:17:01.408Z,52.8
2022-10-14T02:22:01.436Z,53.0
2022-10-14T02:27:01.511Z,52.2
2022-10-14T02:32:01.513Z,52.8
2022-10-14T02:37:01.719Z,54.3
2022-10-14T02:42:01.542Z,54.8
2022-10-14T02:47:01.517Z,55.5
2022-10-14T02:52:01.637Z,55.9
2022-10-14T02:57:01.516Z,55.1
2022-10-14T03:02:01.568Z,54.8
2022-10-14T03:07:01.628Z,54.1
2022-10-14T03:12:01.502Z,97.9
2022-10-14T03:17:01.514Z,98.8
2022-10-14T03:22:01.546Z,100.3
2022-10-14T03:27:01.507Z,100.2
2022-10-14T03:32:01.514Z,100.3
2022-10-14T03:37:01.601Z,56.2
2022-10-14T03:42:01.534Z,54.9
2022-10-14T03:47:01.505Z,53.9
2022-10-14T03:52:01.506Z,53.4
2022-10-14T03:57:01.525Z,52.6
2022-10-14T04:02:01.620Z,52.3
2022-10-14T04:07:01.508Z,51.2
2022-10-14T04:12:01.582Z,49.4
2022-10-14T04:17:01.512Z,49.3
2022-10-14T04:22:01.537Z,49.8
2022-10-14T04:27:01.535Z,49.2
2022-10-14T04:32:01.518Z,50.2
2022-10-14T04:37:01.588Z,51.6
2022-10-14T04:42:01.649Z,51.5
2022-10-14T04:47:01.513Z,50.7
2022-10-14T04:52:01.518Z,50.6
2022-10-14T04:57:01.429Z,49.2
2022-10-14T05:07:01.715Z,49.1
2022-10-14T05:12:02.027Z,49.3
2022-10-14T05:17:01.608Z,49.5
2022-10-14T05:22:01.520Z,49.8
2022-10-14T05:27:01.529Z,48.5
2022-10-14T05:32:01.408Z,48.4
2022-10-14T05:37:01.504Z,47.6
2022-10-14T05:42:01.520Z,48.8
2022-10-14T05:47:01.536Z,50.0
2022-10-14T05:52:01.598Z,51.9
2022-10-14T05:57:01.697Z,53.4
2022-10-14T06:02:01.503Z,54.3
2022-10-14T06:07:01.708Z,53.5
2022-10-14T06:12:01.512Z,53.7
2022-10-14T06:17:01.509Z,53.6
2022-10-14T06:22:01.931Z,53.0
2022-10-14T06:27:01.596Z,54.8
2022-10-14T06:32:01.508Z,56.2
2022-10-14T06:37:02.512Z,56.8
2022-10-14T06:42:01.511Z,58.2
2022-10-14T06:47:01.549Z,60.0
2022-10-14T06:52:01.529Z,59.9
2022-10-14T06:57:01.514Z,59.1
2022-10-14T07:02:01.633Z,59.4
2022-10-14T07:07:01.541Z,59.9
2022-10-14T07:12:01.536Z,59.1
2022-10-14T07:17:01.518Z,59.2
2022-10-14T07:22:02.022Z,60.4
2022-10-14T07:27:04.601Z,60.9
2022-10-14T07:32:01.604Z,60.4
2022-10-14T07:37:01.504Z,60.5
2022-10-14T07:42:01.520Z,59.0
2022-10-14T07:47:01.534Z,58.0
2022-10-14T07:52:01.980Z,55.5
2022-10-14T07:57:01.630Z,54.3
2022-10-14T08:02:01.588Z,53.1
2022-10-14T08:07:01.536Z,53.4
2022-10-14T08:12:01.517Z,53.5
2022-10-14T08:17:02.501Z,54.0
2022-10-14T08:22:02.117Z,54.3
2022-10-14T08:27:02.530Z,52.6
2022-10-14T08:32:01.512Z,51.5
2022-10-14T08:37:01.530Z,50.5
2022-10-14T08:42:17.020Z,49.9
2022-10-14T08:47:02.593Z,48.7
2022-10-14T08:52:08.651Z,49.2
2022-10-14T08:57:03.658Z,50.0
2022-10-14T09:02:01.435Z,49.4
2022-10-14T09:07:01.564Z,48.2
2022-10-14T09:12:04.923Z,46.8
2022-10-14T09:17:05.342Z,45.7
2022-10-14T09:22:02.240Z,42.9
2022-10-14T09:27:01.510Z,39.7
2022-10-14T09:32:01.508Z,37.8
2022-10-14T09:37:01.565Z,34.8
2022-10-14T09:42:01.939Z,33.0
2022-10-14T09:47:01.508Z,31.6
2022-10-14T09:52:01.534Z,32.2
2022-10-14T10:02:01.572Z,32.8
2022-10-14T10:07:01.425Z,31.0
2022-10-14T10:12:01.591Z,28.1
2022-10-14T10:17:01.515Z,23.5
2022-10-14T10:22:01.592Z,18.6
2022-10-14T10:27:17.117Z,14.4
2022-10-14T10:32:01.568Z,12.0
2022-10-14T10:37:01.418Z,10.5
2022-10-14T10:42:01.533Z,10.3
2022-10-14T10:47:01.570Z,9.9
2022-10-14T10:52:01.507Z,9.2
2022-10-14T10:57:01.517Z,7.2
2022-10-14T11:02:01.501Z,6.4
2022-10-14T11:07:01.437Z,4.9
2022-10-14T11:12:12.157Z,4.6
2022-10-14T11:17:01.369Z,3.8
2022-10-14T11:22:17.116Z,3.7
2022-10-14T11:27:01.313Z,2.7
2022-10-14T11:32:01.319Z,2.8
2022-10-14T11:37:14.112Z,2.1
2022-10-14T11:43:17.207Z,1.7
2022-10-14T11:48:01.480Z,1.5
2022-10-14T11:58:01.465Z,1.4
2022-10-14T12:08:01.506Z,1.6
2022-10-14T12:13:01.557Z,2.0
2022-10-14T12:18:01.555Z,2.3
2022-10-14T12:23:01.442Z,2.7
2022-10-14T12:28:01.577Z,3.2
2022-10-14T12:33:01.568Z,3.7
2022-10-14T12:38:01.623Z,4.7
2022-10-14T12:43:01.529Z,5.6
2022-10-14T12:48:01.561Z,6.0
2022-10-14T12:53:01.334Z,6.3
2022-10-14T12:58:03.882Z,6.1
2022-10-14T13:03:01.127Z,6.0
2022-10-14T13:08:01.255Z,6.6
2022-10-14T13:13:01.178Z,6.4
2022-10-14T13:23:00.960Z,7.3
2022-10-14T13:33:00.906Z,6.2
2022-10-14T13:38:05.431Z,6.0
2022-10-14T13:43:01.467Z,5.9
2022-10-14T13:48:01.549Z,4.8
2022-10-14T13:53:01.417Z,3.9
2022-10-14T14:03:03.341Z,4.0
2022-10-14T14:08:30.468Z,3.6
2022-10-14T14:13:01.418Z,3.7
2022-10-14T14:23:01.567Z,3.5
2022-10-14T14:33:01.565Z,3.6
2022-10-14T14:38:01.875Z,4.0
2022-10-14T14:43:03.161Z,5.6
2022-10-14T14:48:01.551Z,6.4
2022-10-14T14:53:01.569Z,9.1
2022-10-14T14:58:01.570Z,12.0
2022-10-14T15:03:01.366Z,14.4
2022-10-14T15:08:01.463Z,14.8
2022-10-14T15:13:03.396Z,17.0
2022-10-14T15:18:01.464Z,18.3
2022-10-14T15:23:01.462Z,18.4
2022-10-14T15:28:01.492Z,19.1
2022-10-14T15:33:01.532Z,21.8
2022-10-14T15:38:01.469Z,24.5
2022-10-14T15:43:01.469Z,24.9
2022-10-14T15:48:01.562Z,28.6
2022-10-14T15:53:01.519Z,31.0
2022-10-14T15:58:01.522Z,34.8
2022-10-14T16:03:01.581Z,36.0
2022-10-14T16:08:01.519Z,38.5
2022-10-14T16:13:01.728Z,39.3
2022-10-14T16:18:01.935Z,41.1
2022-10-14T16:23:02.033Z,40.6
2022-10-14T16:28:01.513Z,42.3
2022-10-14T16:33:01.569Z,43.6
2022-10-14T16:38:01.564Z,44.5
2022-10-14T16:43:01.516Z,45.7
2022-10-14T16:48:01.515Z,45.8
2022-10-14T16:53:03.518Z,45.6
2022-10-14T16:58:01.510Z,45.7
2022-10-14T17:03:01.566Z,43.8
2022-10-14T17:08:01.517Z,42.8
2022-10-14T17:13:01.539Z,42.4
2022-10-14T17:18:01.515Z,38.1
2022-10-14T17:23:10.531Z,36.2
2022-10-14T17:33:01.539Z,35.0
2022-10-14T17:38:01.533Z,33.3
2022-10-14T17:43:01.516Z,37.4
2022-10-14T17:48:01.929Z,38.7
2022-10-14T17:53:02.339Z,40.0
2022-10-14T17:58:02.593Z,42.8
2022-10-14T18:03:01.518Z,45.1
2022-10-14T18:08:01.588Z,45.4
2022-10-14T18:13:01.556Z,46.4
2022-10-14T18:18:01.984Z,47.6
2022-10-14T18:23:01.510Z,48.7
2022-10-14T18:28:01.553Z,50.1
2022-10-14T18:33:01.547Z,51.0
2022-10-14T18:38:01.946Z,51.5
2022-10-14T18:43:01.571Z,51.6
2022-10-14T18:48:01.612Z,52.3
2022-10-14T18:53:02.003Z,54.4
2022-10-14T18:58:01.510Z,56.6
2022-10-14T19:03:01.517Z,58.4
2022-10-14T19:08:02.665Z,59.4
2022-10-14T19:13:01.612Z,58.2
2022-10-14T19:18:01.914Z,54.5
2022-10-14T19:23:01.524Z,52.6
2022-10-14T19:28:01.538Z,50.6
2022-10-14T19:33:01.541Z,54.6
2022-10-14T19:38:01.534Z,53.1
2022-10-14T19:43:01.413Z,54.9
2022-10-14T19:48:01.514Z,55.3
2022-10-14T19:53:01.552Z,57.2
2022-10-14T19:58:01.534Z,52.3
2022-10-14T20:03:01.737Z,51.2
2022-10-14T20:08:01.720Z,50.2
2022-10-14T20:13:01.548Z,47.4
2022-10-14T20:18:01.515Z,45.0
2022-10-14T20:23:01.582Z,43.2
2022-10-14T20:28:01.619Z,44.2
2022-10-14T20:33:01.533Z,42.8
2022-10-14T20:38:01.508Z,43.4
2022-10-14T20:43:01.540Z,41.4
2022-10-14T20:53:01.545Z,41.0
2022-10-14T20:58:01.507Z,39.9
2022-10-14T21:03:01.603Z,38.6
2022-10-14T21:13:01.810Z,37.4
2022-10-14T21:18:01.511Z,37.8
2022-10-14T21:23:01.530Z,39.0
2022-10-14T21:28:01.510Z,39.8
2022-10-14T21:33:01.668Z,39.6
2022-10-14T21:38:01.514Z,39.9
2022-10-14T21:43:01.530Z,37.9
2022-10-14T21:48:01.515Z,36.2
2022-10-14T21:53:01.541Z,38.4
2022-10-14T21:58:01.418Z,42.0
2022-10-14T22:03:01.535Z,44.7
2022-10-14T22:08:01.518Z,47.3
2022-10-14T22:13:01.543Z,49.4
2022-10-14T22:18:01.702Z,47.2
2022-10-14T22:23:01.574Z,44.3
2022-10-14T22:28:01.588Z,41.1
2022-10-14T22:33:01.472Z,38.2
2022-10-14T22:38:01.518Z,35.3
2022-10-14T22:43:01.540Z,32.9
2022-10-14T22:48:01.548Z,31.0
2022-10-14T22:53:01.612Z,29.0
2022-10-14T22:58:01.515Z,28.9
2022-10-14T23:08:01.691Z,28.0
2022-10-14T23:13:01.541Z,27.4
2022-10-14T23:18:01.507Z,28.0
2022-10-14T23:23:01.538Z,27.2
2022-10-14T23:28:01.581Z,26.0
2022-10-14T23:33:01.539Z,27.3
2022-10-14T23:38:01.525Z,27.9
2022-10-14T23:43:01.509Z,26.9
2022-10-14T23:48:01.508Z,26.2
2022-10-14T23:53:01.549Z,26.4
2022-10-14T23:58:01.615Z,25.3
